This is the latest recevied weather packets stored in our database for station/object SP2ARK-10. If no packets are shown the sender has not sent any weather packets the latest 10 day(s).
| Time | Temp. | Humidity | Pressure | Rain* | Wind** | Luminosity | Snow |
|---|---|---|---|---|---|---|---|
| 1777506360 | 6.11° C | 62% | 1036.7 hPa | - | - | - | - |
| 1777505460 | 6.67° C | 62% | 1036.8 hPa | - | - | - | - |
| 1777501857 | 7.22° C | 60% | 1036.6 hPa | - | - | - | - |
| 1777498257 | 8.33° C | 59% | 1036.4 hPa | - | - | - | - |
| 1777497354 | 8.89° C | 58% | 1036.4 hPa | - | - | - | - |
| 1777492852 | 10° C | 56% | 1035.8 hPa | - | - | - | - |
| 1777491051 | 11.11° C | 56% | 1035.7 hPa | - | - | - | - |
| 1777490150 | 11.11° C | 56% | 1035.5 hPa | - | - | - | - |
| 1777486546 | 11.67° C | 52% | 1035 hPa | - | - | - | - |
| 1777473033 | 14.44° C | 48% | 1034.2 hPa | - | - | - | - |
| 1777468529 | 13.89° C | 49% | 1034.2 hPa | - | - | - | - |
| 1777466729 | 12.22° C | 51% | 1034.4 hPa | - | - | - | - |
| 1777464027 | 12.22° C | 50% | 1034.5 hPa | - | - | - | - |
| 1777462226 | 11.67° C | 51% | 1034.4 hPa | - | - | - | - |
| 1777461325 | 10.56° C | 52% | 1034.6 hPa | - | - | - | - |
| 1777457722 | 10° C | 57% | 1034.8 hPa | - | - | - | - |
| 1777456822 | 8.33° C | 58% | 1034.8 hPa | - | - | - | - |
| 1777455020 | 8.33° C | 57% | 1034.7 hPa | - | - | - | - |
| 1777454120 | 7.78° C | 56% | 1034.8 hPa | - | - | - | - |
| 1777453219 | 7.78° C | 57% | 1035 hPa | - | - | - | - |
| 1777451418 | 6.67° C | 59% | 1034.9 hPa | - | - | - | - |
| 1777450517 | 6.67° C | 59% | 1034.9 hPa | - | - | - | - |
| 1777449617 | 6.11° C | 60% | 1034.8 hPa | - | - | - | - |
| 1777447819 | 5.56° C | 62% | 1034.9 hPa | - | - | - | - |
| 1777446915 | 5.56° C | 63% | 1034.7 hPa | - | - | - | - |
* Rain since midnight (hover to see other rain measurements)
** Current wind speed in m/s (hover to see current wind gust speed)